Portada
Imágenes satélite Pronóstico 15 díasClimaPredicción Marítima Ciclones Rayo AeropuertosFAQ Noticias Acerca
El tiempo : Europa África América del Norte América del Sur Asia Australia-Oceanía Otros
Idiomas Contacto

Humberside, Inglaterra

latitud: 53-35N, longitud: 000-21W, altitud: 31 m


METAR: EGNJ 222250Z AUTO 22012KT 9999 NCD 11/09 Q1019
TAF: EGNJ 221702Z 2218/2221 26012KT 9999 SCT025 PROB30 TEMPO 2218/2221 8000 -RA

Hora: 00:03 (23:03 UTC)

Observación

El informe se hizo hace 13 minutos, a las 22:50 UTC
Viento 12 kt del suroeste
Temperatura 11°C
Humedad 87%
Presión 1019 hPa
Visibilidad 10 km o más

Cambiar las unidades

Pronóstico

El informe se hizo hace 6 horas y 1 minutos, a las 17:02 UTC
Pronóstico válido del 22 a las 18 UTC al 22 a las 21 UTC
Viento 12 kt del oeste
Visibilidad 10 km o más
Nubes dispersas a una altura de 2500 ft
Probabilidad 30% :
Temporalmente
del 22 a las 18 UTC al 22 a las 21 UTC
Visibilidad: 8000 m
leve lluvia
La información que se ofrece en estas páginas está sujeta a una cláusula de exención de responsabilidad
El tiempo : Europa África América del Norte América del Sur Asia Australia-Oceanía Otros
Imágenes satélite Pronóstico 15 díasClimaPredicción Marítima Ciclones Rayo AeropuertosFAQ Idiomas Contacto Noticias Acerca